Time;durP1;ratioP1;P1;durP2;ratioP2;P2;SDS_P1;SDS_P2;PMS_P1;PMS_P2;Temp;Humidity;BMP_temperature;BMP_pressure;BME280_temperature;BME280_humidity;BME280_pressure;Samples;Min_cycle;Max_cycle;Signal;HPM_P1;HPM_P2
2023/08/20 00:02:13;;;;;;;1.97;1.17;;;;;;;17.50;94.23;101982.28;5039081;28;20029;-86
2023/08/20 00:04:39;;;;;;;2.03;1.13;;;;;;;17.40;94.38;101976.38;5038130;28;20028;-86
2023/08/20 00:07:05;;;;;;;1.05;1.05;;;;;;;17.42;94.22;101985.97;5038824;28;20114;-87
2023/08/20 00:09:31;;;;;;;1.50;1.40;;;;;;;17.39;94.45;101988.66;5039363;28;20049;-87
2023/08/20 00:11:59;;;;;;;1.50;1.40;;;;;;;17.37;94.81;101984.38;5037931;28;20033;-87
2023/08/20 00:15:04;;;;;;;1.58;1.30;;;;;;;17.34;94.61;101987.91;5038561;28;20018;-86
2023/08/20 00:17:31;;;;;;;1.27;1.17;;;;;;;17.31;94.73;101984.50;5038955;28;20022;-87
2023/08/20 00:19:57;;;;;;;2.15;1.70;;;;;;;17.19;95.36;101973.41;5038184;28;20037;-87
2023/08/20 00:22:23;;;;;;;2.92;1.70;;;;;;;17.16;95.01;101976.13;5038572;28;20033;-87
2023/08/20 00:24:59;;;;;;;1.83;1.70;;;;;;;17.12;95.24;101972.69;5038723;28;20072;-87
2023/08/20 00:27:27;;;;;;;1.80;1.70;;;;;;;17.12;95.14;101971.84;5036728;28;20029;-86
2023/08/20 00:29:52;;;;;;;1.63;1.52;;;;;;;17.06;95.39;101972.88;5036979;28;20029;-87
2023/08/20 00:32:17;;;;;;;1.60;1.50;;;;;;;17.05;95.36;101968.53;5055270;28;20052;-87
2023/08/20 00:34:43;;;;;;;2.93;1.80;;;;;;;17.02;95.35;101980.84;5055291;28;20029;-87
2023/08/20 00:37:09;;;;;;;1.80;1.70;;;;;;;16.98;95.35;101980.91;5055412;28;20043;-87
2023/08/20 00:39:34;;;;;;;2.43;1.60;;;;;;;16.94;95.63;101978.41;5056324;28;20103;-87
2023/08/20 00:41:59;;;;;;;2.13;1.70;;;;;;;16.93;95.54;101995.00;5055546;28;20029;-87
2023/08/20 00:44:28;;;;;;;1.87;1.77;;;;;;;16.92;95.88;102006.38;5055236;28;20507;-87
2023/08/20 00:46:53;;;;;;;1.83;1.73;;;;;;;16.92;95.74;102004.66;5055031;28;20017;-86
2023/08/20 00:49:18;;;;;;;2.53;1.80;;;;;;;16.92;95.88;102009.88;5054978;28;20032;-87
2023/08/20 00:51:45;;;;;;;1.60;1.50;;;;;;;16.89;95.87;102011.72;5054996;28;20074;-87
2023/08/20 00:54:10;;;;;;;2.08;1.60;;;;;;;16.86;95.99;102011.78;5054449;28;20017;-87
2023/08/20 00:56:37;;;;;;;2.07;1.60;;;;;;;16.84;95.83;102009.19;5056659;28;20021;-86
2023/08/20 00:59:05;;;;;;;1.45;1.35;;;;;;;16.81;96.13;102018.00;5062245;28;20028;-86
2023/08/20 01:01:30;;;;;;;1.48;1.38;;;;;;;16.78;96.14;102020.66;5037014;28;20029;-86
2023/08/20 01:03:55;;;;;;;1.53;1.43;;;;;;;16.82;96.34;102032.81;5035533;28;20028;-87
2023/08/20 01:06:50;;;;;;;1.60;1.47;;;;;;;16.85;96.47;102046.75;5034643;28;20441;-87
2023/08/20 01:09:42;;;;;;;1.10;1.05;;;;;;;16.81;96.75;102036.34;4998013;28;20436;-86
2023/08/20 01:12:10;;;;;;;1.40;1.30;;;;;;;16.94;96.71;102051.81;5034778;28;20171;-87
2023/08/20 01:14:35;;;;;;;2.03;1.30;;;;;;;16.96;96.68;102055.28;5034990;28;20026;-87
2023/08/20 01:17:01;;;;;;;1.40;1.30;;;;;;;17.00;96.59;102051.69;5034338;28;20112;-87
2023/08/20 01:19:26;;;;;;;1.13;1.10;;;;;;;17.03;96.67;102062.09;5034863;28;20017;-87
2023/08/20 01:22:13;;;;;;;1.00;1.00;;;;;;;17.06;96.88;102062.03;5034591;28;20456;-87
2023/08/20 01:25:07;;;;;;;1.10;1.08;;;;;;;17.08;96.65;102054.13;5034472;28;20017;-87
2023/08/20 01:28:00;;;;;;;0.93;0.90;;;;;;;17.10;97.38;102050.59;5034501;28;20466;-88
2023/08/20 01:30:27;;;;;;;1.13;1.02;;;;;;;17.07;96.81;102048.03;5033557;28;20496;-87
2023/08/20 01:32:53;;;;;;;1.17;1.17;;;;;;;17.07;96.99;102037.53;5034602;28;20071;-88
2023/08/20 01:35:19;;;;;;;;;;;;;;;17.12;96.85;102040.06;5034676;28;20382;-87
2023/08/20 01:37:44;;;;;;;1.83;1.20;;;;;;;17.07;96.98;102027.06;5034161;28;19913;-88
2023/08/20 01:40:10;;;;;;;2.97;1.40;;;;;;;17.14;96.74;102046.97;5033702;28;20034;-87
2023/08/20 01:42:40;;;;;;;2.50;1.17;;;;;;;17.14;96.78;102041.72;5034650;28;20028;-87
2023/08/20 01:45:06;;;;;;;1.98;1.30;;;;;;;17.17;96.72;102042.56;5032499;28;20041;-87
2023/08/20 01:47:32;;;;;;;1.00;1.00;;;;;;;17.17;96.78;102048.66;5034176;28;20176;-87
2023/08/20 01:49:58;;;;;;;1.17;1.17;;;;;;;17.16;96.60;102044.34;5034108;28;20142;-87
2023/08/20 01:52:24;;;;;;;1.57;1.13;;;;;;;17.20;96.54;102050.38;5033516;28;20018;-87
2023/08/20 01:54:49;;;;;;;1.30;1.20;;;;;;;17.20;96.74;102050.38;5034746;28;20021;-87
2023/08/20 01:57:15;;;;;;;1.40;1.30;;;;;;;17.22;96.87;102053.81;5045589;28;20080;-87
2023/08/20 01:59:40;;;;;;;1.13;1.03;;;;;;;17.24;96.90;102052.00;5034180;28;20033;-87
2023/08/20 02:02:06;;;;;;;1.27;1.10;;;;;;;17.29;97.08;102060.63;5033318;28;20040;-86
2023/08/20 02:04:31;;;;;;;1.30;1.20;;;;;;;17.31;97.13;102066.72;5032221;28;20025;-87
2023/08/20 02:06:57;;;;;;;1.07;1.00;;;;;;;17.33;96.92;102062.31;5034127;28;20029;-87
2023/08/20 02:09:22;;;;;;;1.20;1.10;;;;;;;17.37;97.17;102065.69;5033461;28;20303;-87
2023/08/20 02:11:47;;;;;;;1.30;1.20;;;;;;;17.39;97.11;102077.03;5032961;28;20033;-87
2023/08/20 02:14:13;;;;;;;1.40;1.30;;;;;;;17.42;97.06;102074.31;5033755;28;20072;-88
2023/08/20 02:16:38;;;;;;;1.80;1.70;;;;;;;17.38;97.36;102068.28;5034137;28;20056;-87
2023/08/20 02:19:06;;;;;;;4.00;2.10;;;;;;;17.44;97.28;102081.25;5032760;28;20044;-87
2023/08/20 02:21:43;;;;;;;2.00;1.90;;;;;;;17.36;97.27;102066.59;5033975;28;20021;-88
2023/08/20 02:24:09;;;;;;;2.25;1.80;;;;;;;17.44;97.43;102075.13;5033611;28;20049;-87
2023/08/20 02:26:34;;;;;;;4.90;2.10;;;;;;;17.38;97.90;102068.28;5033058;28;20052;-87
2023/08/20 02:28:59;;;;;;;2.90;2.20;;;;;;;17.34;97.57;102066.63;5033770;28;20026;-88
2023/08/20 02:31:25;;;;;;;3.27;2.10;;;;;;;17.37;97.51;102081.44;5043478;28;20441;-87
2023/08/20 02:33:50;;;;;;;2.50;2.30;;;;;;;17.32;97.44;102075.44;5052199;28;20389;-86
2023/08/20 02:36:15;;;;;;;2.40;2.20;;;;;;;17.33;97.43;102079.78;5053200;28;20488;-87
2023/08/20 02:38:41;;;;;;;2.20;2.00;;;;;;;17.31;97.38;102082.47;5053099;28;20021;-87
2023/08/20 02:41:06;;;;;;;3.67;2.30;;;;;;;17.20;97.63;102058.25;5051998;28;20036;-87
2023/08/20 02:43:31;;;;;;;3.70;2.40;;;;;;;17.25;98.05;102067.72;5053071;28;20057;-87
2023/08/20 02:45:57;;;;;;;2.73;2.00;;;;;;;17.19;97.95;102051.25;5053073;28;20021;-87
2023/08/20 02:48:26;;;;;;;2.37;1.93;;;;;;;17.21;97.88;102058.19;5052055;28;20033;-87
2023/08/20 02:50:53;;;;;;;3.85;2.22;;;;;;;17.26;97.99;102061.59;5052331;28;20032;-87
2023/08/20 02:53:18;;;;;;;2.92;2.17;;;;;;;17.21;97.83;102054.72;5052943;28;20021;-87
2023/08/20 02:55:43;;;;;;;2.20;2.00;;;;;;;17.23;97.78;102066.88;5051192;28;20116;-87
2023/08/20 02:58:09;;;;;;;2.60;2.10;;;;;;;17.20;97.85;102069.59;5033141;28;20074;-87
2023/08/20 03:00:34;;;;;;;2.33;2.13;;;;;;;17.17;98.13;102063.56;5032534;28;20036;-87
2023/08/20 03:03:02;;;;;;;2.83;2.10;;;;;;;17.04;98.00;102048.09;5033123;28;20120;-88
2023/08/20 03:05:28;;;;;;;1.98;1.80;;;;;;;17.07;98.11;102061.16;5032630;28;20021;-87
2023/08/20 03:07:53;;;;;;;1.70;1.60;;;;;;;17.02;97.84;102056.91;5050334;28;20492;-87
2023/08/20 03:10:18;;;;;;;2.67;1.70;;;;;;;16.97;98.12;102054.38;5052721;28;20538;-87
2023/08/20 03:12:44;;;;;;;1.70;1.60;;;;;;;16.94;98.19;102059.69;5053198;28;20021;-87
2023/08/20 03:15:09;;;;;;;2.80;1.60;;;;;;;16.90;98.44;102058.00;5053526;28;20064;-87
2023/08/20 03:17:34;;;;;;;2.00;1.80;;;;;;;16.83;98.26;102055.53;5053517;28;20021;-88
2023/08/20 03:20:01;;;;;;;1.70;1.60;;;;;;;16.81;98.62;102053.84;5053038;28;20086;-87
2023/08/20 03:22:27;;;;;;;1.83;1.60;;;;;;;16.81;98.38;102056.47;5051752;28;20025;-87
2023/08/20 03:24:53;;;;;;;2.53;1.47;;;;;;;16.76;98.29;102053.06;5052583;28;20043;-87
2023/08/20 03:27:19;;;;;;;1.95;1.48;;;;;;;16.72;98.45;102054.91;5052467;28;20267;-87
2023/08/20 03:29:45;;;;;;;2.13;1.73;;;;;;;16.66;98.72;102050.66;5051728;28;20078;-87
2023/08/20 03:32:11;;;;;;;1.80;1.70;;;;;;;16.68;98.88;102058.47;5051974;28;20037;-87
2023/08/20 03:37:58;;;;;;;1.80;1.70;;;;;;;16.47;98.76;102044.94;5033007;28;20059;-87
2023/08/20 03:40:23;;;;;;;2.00;1.80;;;;;;;16.39;98.78;102033.75;5033061;28;20021;-87
2023/08/20 03:42:49;;;;;;;1.80;1.70;;;;;;;16.44;98.85;102054.63;5032315;28;20352;-87
2023/08/20 03:45:14;;;;;;;1.80;1.70;;;;;;;16.44;98.98;102052.00;5032570;28;20088;-87
2023/08/20 03:47:42;;;;;;;1.70;1.60;;;;;;;16.30;98.91;102037.41;5032637;28;20026;-87
2023/08/20 03:50:07;;;;;;;2.15;1.83;;;;;;;16.30;99.27;102049.66;5031579;28;20029;-87
2023/08/20 03:52:32;;;;;;;2.13;1.93;;;;;;;16.33;99.34;102057.44;5032697;28;20384;-87
2023/08/20 03:54:58;;;;;;;2.73;2.10;;;;;;;16.28;99.23;102061.94;5032437;28;20040;-87
2023/08/20 03:57:23;;;;;;;2.43;2.10;;;;;;;16.27;99.22;102063.66;5031473;28;20032;-87
2023/08/20 03:59:49;;;;;;;2.93;2.17;;;;;;;16.22;99.26;102060.28;5035314;28;20029;-87
2023/08/20 04:02:14;;;;;;;2.93;2.20;;;;;;;16.10;99.37;102052.66;5053423;28;20029;-87
2023/08/20 04:04:40;;;;;;;2.20;2.03;;;;;;;16.16;99.47;102063.00;5055675;28;20025;-87
2023/08/20 04:07:05;;;;;;;2.23;1.90;;;;;;;16.11;99.36;102072.72;5055873;28;20025;-87
2023/08/20 04:09:32;;;;;;;2.10;1.90;;;;;;;16.12;99.42;102074.47;5055826;28;20024;-88
2023/08/20 04:11:58;;;;;;;2.50;2.15;;;;;;;16.09;99.68;102080.63;5055765;28;20029;-87
2023/08/20 04:14:26;;;;;;;3.10;2.20;;;;;;;16.10;99.58;102086.72;5055864;28;20100;-86
2023/08/20 04:16:51;;;;;;;4.30;2.10;;;;;;;16.05;99.50;102078.94;5055943;28;20048;-86
2023/08/20 04:19:16;;;;;;;2.67;2.20;;;;;;;16.08;99.61;102083.25;5054948;28;20072;-86
2023/08/20 04:21:42;;;;;;;3.13;2.40;;;;;;;16.06;99.63;102083.28;5055519;28;20163;-87
2023/08/20 04:24:07;;;;;;;2.40;2.20;;;;;;;16.05;99.64;102090.28;5055117;28;20445;-86
2023/08/20 04:26:33;;;;;;;2.10;1.90;;;;;;;16.01;99.39;102090.34;5054796;28;20531;-86
2023/08/20 04:28:58;;;;;;;2.47;2.10;;;;;;;15.94;99.53;102078.28;5042883;28;20032;-86
2023/08/20 04:31:23;;;;;;;3.73;2.50;;;;;;;15.94;99.64;102088.75;5034759;28;20053;-86
2023/08/20 04:33:48;;;;;;;3.37;2.30;;;;;;;15.95;99.90;102090.47;5034770;28;20095;-86
2023/08/20 04:36:14;;;;;;;2.30;2.10;;;;;;;15.92;99.68;102090.53;5035225;28;20053;-86
2023/08/20 04:38:39;;;;;;;1.80;1.70;;;;;;;15.86;99.64;102083.66;5035749;28;20112;-87
2023/08/20 04:41:04;;;;;;;2.07;1.87;;;;;;;15.87;99.85;102088.00;5034854;28;20060;-86
2023/08/20 04:43:30;;;;;;;3.13;2.00;;;;;;;15.85;99.99;102085.41;5035256;28;20017;-86
2023/08/20 04:45:55;;;;;;;2.27;2.07;;;;;;;15.81;99.73;102081.06;5034754;28;20057;-86
2023/08/20 04:48:20;;;;;;;2.20;2.00;;;;;;;15.78;99.93;102078.50;5035071;28;20013;-87
2023/08/20 04:50:47;;;;;;;2.20;2.00;;;;;;;15.76;99.97;102080.31;5035299;28;20018;-87
2023/08/20 04:53:12;;;;;;;2.35;2.03;;;;;;;15.72;99.99;102079.47;5034088;28;20432;-86
2023/08/20 04:55:37;;;;;;;1.87;1.73;;;;;;;15.75;100.00;102086.44;5035077;28;20060;-86
2023/08/20 04:58:03;;;;;;;2.23;2.00;;;;;;;15.77;100.00;102089.00;5035157;28;20025;-86
2023/08/20 05:00:28;;;;;;;1.93;1.83;;;;;;;15.80;100.00;102091.59;5034645;28;20037;-86
2023/08/20 05:02:55;;;;;;;1.80;1.70;;;;;;;15.80;100.00;102084.59;5035005;28;20021;-87
2023/08/20 05:05:21;;;;;;;1.95;1.70;;;;;;;15.80;100.00;102088.97;5034575;28;20056;-87
2023/08/20 05:07:56;;;;;;;1.80;1.70;;;;;;;15.79;100.00;102090.72;5034250;28;20053;-87
2023/08/20 05:10:21;;;;;;;1.60;1.50;;;;;;;15.71;100.00;102082.13;5035034;28;20051;-87
2023/08/20 05:12:46;;;;;;;1.93;1.73;;;;;;;15.70;100.00;102078.66;5034890;28;20033;-87
2023/08/20 05:15:12;;;;;;;2.30;1.90;;;;;;;15.73;100.00;102080.34;5032895;28;20028;-86
2023/08/20 05:17:49;;;;;;;1.70;1.60;;;;;;;15.80;100.00;102094.19;5034959;28;20084;-87
2023/08/20 05:20:14;;;;;;;2.55;1.70;;;;;;;15.83;100.00;102099.38;5034489;28;20040;-86
2023/08/20 05:22:41;;;;;;;1.67;1.57;;;;;;;15.73;100.00;102080.34;5034136;28;20025;-86
2023/08/20 05:25:07;;;;;;;1.65;1.55;;;;;;;15.83;100.00;102100.25;5034500;28;20044;-87
2023/08/20 05:27:41;;;;;;;1.70;1.60;;;;;;;15.85;100.00;102111.59;5034853;28;20486;-87
2023/08/20 05:30:08;;;;;;;2.05;1.85;;;;;;;15.82;100.00;102103.75;5033658;28;20033;-86
2023/08/20 05:32:33;;;;;;;1.83;1.60;;;;;;;15.93;100.00;102111.44;5034298;28;20045;-87
2023/08/20 05:35:14;;;;;;;2.10;1.80;;;;;;;15.94;100.00;102110.53;5035279;28;20047;-87
2023/08/20 05:37:39;;;;;;;1.40;1.40;;;;;;;16.03;100.00;102120.00;5048659;28;20505;-87
2023/08/20 05:40:06;;;;;;;1.83;1.67;;;;;;;15.93;100.00;102098.34;5041442;28;20029;-87
2023/08/20 05:42:31;;;;;;;2.08;1.60;;;;;;;16.00;100.00;102107.84;5033963;28;20355;-87
2023/08/20 05:44:56;;;;;;;1.60;1.50;;;;;;;16.02;100.00;102105.19;5034532;28;20108;-88
2023/08/20 05:49:57;;;;;;;1.40;1.30;;;;;;;16.17;100.00;102122.34;5068935;22;20041;-87
2023/08/20 05:52:22;;;;;;;1.40;1.30;;;;;;;16.20;100.00;102127.56;5054233;28;20028;-87
2023/08/20 05:54:47;;;;;;;1.33;1.23;;;;;;;16.20;100.00;102117.97;5054003;28;20021;-87
2023/08/20 05:57:13;;;;;;;1.47;1.30;;;;;;;16.29;100.00;102121.28;5053332;28;20093;-86
2023/08/20 05:59:38;;;;;;;1.40;1.30;;;;;;;16.29;100.00;102116.91;5053771;28;20052;-87
2023/08/20 06:02:03;;;;;;;1.30;1.20;;;;;;;16.36;100.00;102122.88;5053408;28;20091;-86
2023/08/20 06:04:30;;;;;;;1.20;1.20;;;;;;;16.40;100.00;102114.09;5053086;28;20465;-86
2023/08/20 06:06:55;;;;;;;1.02;1.02;;;;;;;16.48;100.00;102122.66;5053814;28;20454;-89
2023/08/20 06:09:20;;;;;;;0.90;0.90;;;;;;;16.49;100.00;102113.06;5054799;28;20071;-94
2023/08/20 06:11:57;;;;;;;1.13;1.03;;;;;;;16.56;100.00;102111.13;5054835;28;20048;-89
2023/08/20 06:14:29;;;;;;;1.27;1.17;;;;;;;16.57;100.00;102105.00;5048589;28;20381;-90
2023/08/20 06:16:54;;;;;;;1.10;0.80;;;;;;;16.70;100.00;102118.75;5033884;28;20026;-89
2023/08/20 06:19:19;;;;;;;0.57;0.57;;;;;;;16.74;100.00;102118.66;5033451;28;20029;-89
2023/08/20 06:21:45;;;;;;;0.80;0.80;;;;;;;16.80;100.00;102120.28;5033923;28;20025;-89
2023/08/20 06:24:10;;;;;;;0.47;0.47;;;;;;;16.89;100.00;102124.47;5033995;28;20030;-89
2023/08/20 06:26:35;;;;;;;0.70;0.70;;;;;;;16.94;100.00;102122.63;5033594;28;20032;-88
2023/08/20 06:29:01;;;;;;;0.43;0.43;;;;;;;17.01;100.00;102123.38;5033454;28;20082;-90
2023/08/20 06:31:26;;;;;;;0.47;0.47;;;;;;;17.07;100.00;102125.84;5033032;28;20049;-88
2023/08/20 06:33:52;;;;;;;0.43;0.43;;;;;;;17.12;100.00;102124.00;5033769;28;20018;-88
2023/08/20 06:36:17;;;;;;;0.20;0.20;;;;;;;17.18;100.00;102120.38;5033352;28;20022;-89
2023/08/20 06:38:42;;;;;;;1.00;0.43;;;;;;;17.24;100.00;102130.69;5033513;28;20025;-89
2023/08/20 06:41:07;;;;;;;0.50;0.50;;;;;;;17.34;100.00;102136.63;5051309;28;20029;-88
2023/08/20 06:43:33;;;;;;;0.30;0.30;;;;;;;17.41;100.00;102135.56;5053795;28;20055;-88
2023/08/20 06:45:58;;;;;;;0.20;0.20;;;;;;;17.43;100.00;102126.78;5052885;28;20457;-88
2023/08/20 06:48:24;;;;;;;0.30;0.30;;;;;;;17.55;100.00;102127.38;5053193;28;20045;-89
2023/08/20 06:50:50;;;;;;;0.30;0.30;;;;;;;17.67;100.00;102134.97;5051974;28;20378;-89
2023/08/20 06:53:15;;;;;;;0.47;0.47;;;;;;;17.71;100.00;102131.34;5051951;28;20116;-86
2023/08/20 06:55:43;;;;;;;0.50;0.40;;;;;;;17.79;100.00;102125.06;5049066;28;20051;-87
2023/08/20 06:58:09;;;;;;;0.38;0.38;;;;;;;17.90;100.00;102131.75;5049907;28;20032;-87
2023/08/20 07:00:34;;;;;;;0.40;0.10;;;;;;;18.00;100.00;102126.28;5052912;28;20036;-89
2023/08/20 07:02:59;;;;;;;0.30;0.30;;;;;;;18.08;100.00;102132.19;5052933;28;20048;-91
2023/08/20 07:05:25;;;;;;;1.93;1.30;;;;;;;19.13;100.00;102131.03;5053341;28;20087;-94
2023/08/20 07:07:50;;;;;;;1.67;1.37;;;;;;;21.59;100.00;102129.34;5060715;22;20132;-92
2023/08/20 07:10:18;;;;;;;0.80;0.70;;;;;;;24.28;95.52;102138.94;5053077;28;20075;-90
2023/08/20 07:12:43;;;;;;;0.60;0.57;;;;;;;26.42;90.67;102146.25;5052579;28;20075;-87
2023/08/20 07:15:09;;;;;;;0.40;0.40;;;;;;;28.11;84.86;102147.78;5051470;28;20057;-88
2023/08/20 07:17:38;;;;;;;0.37;0.37;;;;;;;29.15;78.77;102151.13;5052453;28;20462;-87
2023/08/20 07:20:04;;;;;;;0.88;0.70;;;;;;;29.37;72.68;102164.63;5106087;22;20084;-88
2023/08/20 07:22:29;;;;;;;0.70;0.70;;;;;;;28.96;70.39;102164.03;5051833;28;20021;-88
2023/08/20 07:24:55;;;;;;;0.77;0.77;;;;;;;28.21;70.45;102151.53;5052507;28;20104;-88
2023/08/20 07:27:23;;;;;;;1.43;0.77;;;;;;;27.29;70.94;102159.47;5052282;28;20500;-86
2023/08/20 07:29:48;;;;;;;1.63;1.50;;;;;;;26.26;70.16;102151.69;5051555;28;20086;-87
2023/08/20 07:32:13;;;;;;;1.40;1.10;;;;;;;25.50;73.92;102155.28;5052703;28;20029;-86
2023/08/20 07:34:39;;;;;;;1.63;1.30;;;;;;;24.83;73.57;102149.25;5053302;28;20017;-85
2023/08/20 07:37:04;;;;;;;3.10;1.50;;;;;;;24.24;75.72;102145.31;5052332;28;20350;-86
2023/08/20 07:39:30;;;;;;;1.67;1.30;;;;;;;23.78;78.07;102146.75;5055688;28;20017;-86
2023/08/20 07:42:03;;;;;;;1.67;1.23;;;;;;;23.44;79.94;102149.31;5055321;28;20115;-86
2023/08/20 07:44:49;;;;;;;1.88;1.60;;;;;;;23.09;74.97;102149.19;5056275;28;20044;-86
2023/08/20 07:47:20;;;;;;;2.13;1.75;;;;;;;22.79;81.39;102151.47;5042491;28;20120;-87
2023/08/20 07:49:45;;;;;;;3.13;1.55;;;;;;;22.61;81.71;102145.25;5035437;28;20041;-86
2023/08/20 07:52:11;;;;;;;1.90;1.33;;;;;;;22.60;80.60;102162.91;5035771;28;20124;-86
2023/08/20 07:54:36;;;;;;;1.27;1.17;;;;;;;22.49;83.58;102159.91;5036098;28;20025;-85
2023/08/20 07:57:02;;;;;;;2.67;1.67;;;;;;;22.51;83.27;102163.34;5044270;28;20025;-83
2023/08/20 08:00:04;;;;;;;1.40;1.30;;;;;;;22.46;83.08;102168.81;5049872;28;20022;-82
2023/08/20 08:02:22;;;;;;;6.72;2.70;;;;;;;22.31;74.38;102166.81;5040330;28;20185;-85
2023/08/20 08:04:47;;;;;;;3.57;2.00;;;;;;;22.15;78.62;102169.28;5037567;28;20026;-86
2023/08/20 08:07:13;;;;;;;2.93;1.77;;;;;;;22.16;81.72;102168.38;5051861;28;20032;-83
2023/08/20 08:09:38;;;;;;;1.50;1.40;;;;;;;22.22;78.17;102168.09;5040106;28;20071;-84
2023/08/20 08:12:04;;;;;;;1.30;1.20;;;;;;;22.26;81.00;102171.44;5046986;28;20041;-85
2023/08/20 08:14:29;;;;;;;1.33;1.23;;;;;;;22.32;81.43;102168.56;5042423;28;20043;-84
2023/08/20 08:16:55;;;;;;;1.73;1.20;;;;;;;22.40;81.82;102166.41;5047497;28;20017;-84
2023/08/20 08:19:20;;;;;;;0.97;0.97;;;;;;;22.52;82.57;102178.25;5048455;28;20045;-84
2023/08/20 08:21:46;;;;;;;1.10;1.00;;;;;;;22.61;81.24;102175.22;5048792;28;20028;-84
2023/08/20 08:24:13;;;;;;;0.88;0.88;;;;;;;22.63;80.98;102178.63;5044375;28;20029;-84
2023/08/20 08:26:39;;;;;;;0.60;0.60;;;;;;;22.74;78.88;102190.53;5045822;28;20021;-84
2023/08/20 08:29:06;;;;;;;0.88;0.88;;;;;;;22.82;81.32;102183.94;5043376;28;20158;-86
2023/08/20 08:31:32;;;;;;;0.80;0.80;;;;;;;22.93;74.54;102179.94;5044916;28;20092;-86
2023/08/20 08:33:57;;;;;;;0.75;0.75;;;;;;;22.97;80.27;102177.06;5045109;28;20056;-84
2023/08/20 08:36:24;;;;;;;0.90;0.80;;;;;;;23.04;78.76;102180.31;5042780;28;20024;-84
2023/08/20 08:38:50;;;;;;;1.30;0.82;;;;;;;23.12;80.29;102186.13;5046853;28;20500;-83
2023/08/20 08:41:16;;;;;;;0.50;0.50;;;;;;;23.24;80.53;102182.03;5046045;28;20104;-84
2023/08/20 08:43:41;;;;;;;0.87;0.83;;;;;;;23.39;80.49;102193.69;5047843;28;20117;-84
2023/08/20 08:46:14;;;;;;;0.40;0.40;;;;;;;23.50;79.95;102187.00;5042528;28;20108;-83
2023/08/20 08:48:42;;;;;;;0.52;0.52;;;;;;;23.55;77.50;102188.50;5047638;28;20052;-84
2023/08/20 08:51:08;;;;;;;0.40;0.40;;;;;;;23.62;73.07;102188.22;5039315;28;20052;-85
2023/08/20 08:53:34;;;;;;;0.22;0.22;;;;;;;23.69;77.86;102192.25;5045902;28;20021;-90
2023/08/20 08:56:00;;;;;;;;;;;;;;;23.77;74.79;102194.53;5036260;28;20048;-92
2023/08/20 08:58:26;;;;;;;0.38;0.38;;;;;;;23.83;75.38;102187.13;5036871;28;19917;-90
2023/08/20 09:00:51;;;;;;;0.50;0.40;;;;;;;23.95;76.60;102188.31;5055496;28;20028;-89
2023/08/20 09:03:17;;;;;;;0.57;0.47;;;;;;;24.07;77.02;102197.47;5055608;28;20378;-88
2023/08/20 09:05:49;;;;;;;0.50;0.50;;;;;;;24.20;74.99;102198.56;5045722;28;20105;-89
2023/08/20 09:08:28;;;;;;;0.50;0.50;;;;;;;24.31;75.98;102197.13;5048302;28;20806;-88
2023/08/20 09:11:02;;;;;;;1.65;0.70;;;;;;;24.35;75.25;102198.69;5049980;28;20060;-88
2023/08/20 09:13:38;;;;;;;1.00;0.70;;;;;;;24.43;71.87;102200.94;5042564;28;20020;-89
2023/08/20 09:16:09;;;;;;;0.45;0.45;;;;;;;24.49;74.12;102196.16;5047756;28;20051;-88
2023/08/20 09:21:02;;;;;;;0.45;0.45;;;;;;;24.70;62.99;102201.28;5072359;28;20052;-89
2023/08/20 09:23:29;;;;;;;0.88;0.75;;;;;;;24.68;70.61;102195.16;5062453;28;20029;-79
2023/08/20 09:25:55;;;;;;;0.77;0.77;;;;;;;24.75;71.89;102196.59;5063195;28;20025;-79
2023/08/20 09:28:20;;;;;;;0.67;0.60;;;;;;;24.85;68.41;102196.94;5060894;28;20082;-87
2023/08/20 09:30:56;;;;;;;0.50;0.50;;;;;;;24.98;67.13;102203.28;5063916;28;20032;-87
2023/08/20 09:33:22;;;;;;;0.43;0.43;;;;;;;25.10;70.63;102204.44;5066895;28;20021;-88
2023/08/20 09:35:53;;;;;;;0.30;0.30;;;;;;;25.25;68.10;102202.72;5064539;28;20020;-86
2023/08/20 09:38:28;;;;;;;0.98;0.60;;;;;;;25.32;67.19;102205.88;5062585;28;20036;-86
2023/08/20 09:41:08;;;;;;;0.45;0.45;;;;;;;25.43;66.65;102206.16;5071060;28;20427;-87
2023/08/20 09:43:38;;;;;;;0.22;0.22;;;;;;;25.50;69.32;102200.47;5073510;28;20028;-87
2023/08/20 09:46:05;;;;;;;0.20;0.20;;;;;;;25.62;69.11;102199.78;5073813;28;20029;-87
2023/08/20 09:48:46;;;;;;;0.20;0.20;;;;;;;25.70;68.15;102194.03;5073136;28;20043;-87
2023/08/20 09:51:18;;;;;;;0.10;0.10;;;;;;;25.85;67.19;102202.91;5073671;28;20095;-87
2023/08/20 09:53:53;;;;;;;0.20;0.20;;;;;;;25.97;64.99;102211.94;5074057;28;20028;-86
2023/08/20 09:56:28;;;;;;;0.10;0.10;;;;;;;26.08;67.73;102203.31;5073165;28;20032;-86
2023/08/20 09:58:54;;;;;;;0.25;0.25;;;;;;;26.18;66.96;102209.84;5073604;28;20372;-86
2023/08/20 10:01:20;;;;;;;0.10;0.10;;;;;;;26.28;63.60;102207.50;5072854;28;20017;-87
2023/08/20 10:03:45;;;;;;;0.10;0.10;;;;;;;26.39;65.88;102207.69;5073199;28;20170;-86
2023/08/20 10:06:11;;;;;;;0.13;0.13;;;;;;;26.39;56.16;102210.34;5072015;28;20025;-86
2023/08/20 10:08:39;;;;;;;0.15;0.15;;;;;;;26.42;62.84;102206.63;5062849;28;20036;-86
2023/08/20 10:11:05;;;;;;;0.40;0.20;;;;;;;26.40;49.44;102197.88;5075321;28;20028;-86
2023/08/20 10:13:30;;;;;;;0.25;0.25;;;;;;;26.44;63.59;102199.41;5073642;28;20032;-88
2023/08/20 10:15:56;;;;;;;0.63;0.30;;;;;;;26.58;63.36;102187.91;5075599;28;20054;-87
2023/08/20 10:18:22;;;;;;;0.80;0.32;;;;;;;26.66;63.21;102193.59;5074919;28;20095;-88
2023/08/20 10:20:50;;;;;;;0.30;0.28;;;;;;;26.74;63.28;102201.13;5069770;28;20370;-87
2023/08/20 10:23:20;;;;;;;0.20;0.10;;;;;;;26.85;59.56;102204.00;5062524;28;20088;-86
2023/08/20 10:25:46;;;;;;;0.15;0.15;;;;;;;26.93;61.29;102199.03;5052632;28;20029;-86
2023/08/20 10:28:18;;;;;;;0.20;0.20;;;;;;;26.96;62.41;102196.16;5052652;28;20560;-87
2023/08/20 10:31:07;;;;;;;0.25;0.10;;;;;;;27.04;61.90;102195.69;5052408;28;20111;-86
2023/08/20 10:33:48;;;;;;;0.10;0.10;;;;;;;27.11;59.98;102198.81;5053243;28;20100;-86
2023/08/20 10:36:17;;;;;;;0.70;0.20;;;;;;;27.17;60.37;102198.41;5069370;28;20032;-86
2023/08/20 10:38:45;;;;;;;0.68;0.45;;;;;;;27.06;54.58;102190.25;5072118;28;20035;-87
2023/08/20 10:41:11;;;;;;;0.45;0.30;;;;;;;27.06;58.70;102198.25;5072400;28;20021;-86
2023/08/20 10:43:37;;;;;;;;;;;;;;;27.15;58.23;102202.13;5069155;28;20123;-87
2023/08/20 10:46:18;;;;;;;0.52;0.32;;;;;;;27.26;56.17;102196.97;5063337;28;20321;-87
2023/08/20 10:48:48;;;;;;;0.50;0.40;;;;;;;27.37;56.10;102199.78;5071199;28;20380;-87
2023/08/20 10:51:19;;;;;;;0.20;0.20;;;;;;;27.46;46.67;102194.81;5072496;28;20032;-87
2023/08/20 10:54:07;;;;;;;0.75;0.50;;;;;;;27.52;52.48;102194.44;5054943;28;20037;-87
2023/08/20 10:56:46;;;;;;;0.40;0.20;;;;;;;27.62;54.36;102198.19;5052544;28;20021;-87
2023/08/20 10:59:21;;;;;;;0.20;0.10;;;;;;;27.76;58.52;102194.59;5052149;28;20100;-88
2023/08/20 11:01:51;;;;;;;0.30;0.30;;;;;;;27.86;49.30;102194.84;5052908;28;20461;-87
2023/08/20 11:04:21;;;;;;;1.90;0.77;;;;;;;27.65;40.82;102191.78;5060575;28;20174;-87
2023/08/20 11:06:50;;;;;;;0.50;0.50;;;;;;;27.63;52.35;102193.69;5065826;28;20024;-87
2023/08/20 11:09:18;;;;;;;0.98;0.50;;;;;;;27.78;48.29;102198.00;5061782;28;20480;-87
2023/08/20 11:11:44;;;;;;;0.22;0.20;;;;;;;27.96;53.94;102197.72;5062919;28;20021;-86
2023/08/20 11:14:13;;;;;;;;;;;;;;;28.03;47.07;102193.69;5067460;28;20389;-86
2023/08/20 11:16:39;;;;;;;0.55;0.38;;;;;;;28.01;45.32;102193.75;5071826;28;19912;-87
2023/08/20 11:19:08;;;;;;;;;;;;;;;28.01;48.44;102192.94;5062412;28;20047;-86
2023/08/20 11:21:33;;;;;;;0.68;0.55;;;;;;;28.11;51.89;102188.69;5068563;28;19970;-86
2023/08/20 11:23:59;;;;;;;;;;;;;;;28.24;51.62;102194.03;5072607;28;20020;-87
2023/08/20 11:26:24;;;;;;;0.68;0.50;;;;;;;28.36;48.15;102189.66;5071743;28;19912;-88
2023/08/20 11:28:50;;;;;;;0.20;0.20;;;;;;;28.44;52.23;102187.31;5071066;28;20024;-87
2023/08/20 11:31:15;;;;;;;;;;;;;;;28.62;52.39;102190.47;5063712;28;20315;-86
2023/08/20 11:33:40;;;;;;;0.20;0.20;;;;;;;28.74;52.85;102182.59;5057607;28;19916;-87
2023/08/20 11:36:06;;;;;;;;;;;;;;;28.79;52.51;102183.97;5052251;28;20086;-88
2023/08/20 11:38:31;;;;;;;0.13;0.13;;;;;;;28.86;52.47;102184.38;5052826;28;20349;-88